sensor_id;sensor_type;location;lat;lon;timestamp;temperature;humidity
7512;DHT22;9999;48.780;9.146;2022-08-06T00:01:07;18.90;99.90
7512;DHT22;9999;48.780;9.146;2022-08-06T00:03:34;18.90;99.90
7512;DHT22;9999;48.780;9.146;2022-08-06T00:06:01;18.90;99.90
7512;DHT22;9999;48.780;9.146;2022-08-06T00:08:28;18.90;99.90
7512;DHT22;9999;48.780;9.146;2022-08-06T00:10:56;18.90;99.90
7512;DHT22;9999;48.780;9.146;2022-08-06T00:13:23;19.00;99.90
7512;DHT22;9999;48.780;9.146;2022-08-06T00:15:49;18.90;99.90
7512;DHT22;9999;48.780;9.146;2022-08-06T00:18:17;19.00;99.90
7512;DHT22;9999;48.780;9.146;2022-08-06T00:20:44;19.10;99.90
7512;DHT22;9999;48.780;9.146;2022-08-06T00:23:11;19.10;99.90
7512;DHT22;9999;48.780;9.146;2022-08-06T00:25:38;19.20;99.90
7512;DHT22;9999;48.780;9.146;2022-08-06T00:28:06;19.10;99.90
7512;DHT22;9999;48.780;9.146;2022-08-06T00:30:33;19.20;99.90
7512;DHT22;9999;48.780;9.146;2022-08-06T00:32:59;19.10;99.90
7512;DHT22;9999;48.780;9.146;2022-08-06T00:35:26;19.00;99.90
7512;DHT22;9999;48.780;9.146;2022-08-06T00:37:53;19.00;99.90
7512;DHT22;9999;48.780;9.146;2022-08-06T00:40:21;18.90;99.90
7512;DHT22;9999;48.780;9.146;2022-08-06T00:42:49;18.80;99.90
7512;DHT22;9999;48.780;9.146;2022-08-06T00:45:17;18.80;99.90
7512;DHT22;9999;48.780;9.146;2022-08-06T00:47:44;18.80;99.90
7512;DHT22;9999;48.780;9.146;2022-08-06T00:50:11;18.90;99.90
7512;DHT22;9999;48.780;9.146;2022-08-06T00:52:38;18.90;99.90
7512;DHT22;9999;48.780;9.146;2022-08-06T00:55:05;18.80;99.90
7512;DHT22;9999;48.780;9.146;2022-08-06T00:57:32;18.80;99.90
7512;DHT22;9999;48.780;9.146;2022-08-06T00:59:59;18.80;99.90
7512;DHT22;9999;48.780;9.146;2022-08-06T01:02:27;18.80;99.90
7512;DHT22;9999;48.780;9.146;2022-08-06T01:04:53;18.70;99.90
7512;DHT22;9999;48.780;9.146;2022-08-06T01:07:20;18.60;99.90
7512;DHT22;9999;48.780;9.146;2022-08-06T01:09:47;18.60;99.90
7512;DHT22;9999;48.780;9.146;2022-08-06T01:12:14;18.50;99.90
7512;DHT22;9999;48.780;9.146;2022-08-06T01:14:41;18.50;99.90
7512;DHT22;9999;48.780;9.146;2022-08-06T01:17:14;18.60;99.90
7512;DHT22;9999;48.780;9.146;2022-08-06T01:19:51;18.60;99.90
7512;DHT22;9999;48.780;9.146;2022-08-06T01:22:42;18.50;99.90
7512;DHT22;9999;48.780;9.146;2022-08-06T01:28:21;18.50;99.90
7512;DHT22;9999;48.780;9.146;2022-08-06T01:30:52;18.50;99.90
7512;DHT22;9999;48.780;9.146;2022-08-06T01:33:25;18.70;99.90
7512;DHT22;9999;48.780;9.146;2022-08-06T01:35:56;18.70;99.90
7512;DHT22;9999;48.780;9.146;2022-08-06T01:38:39;18.70;99.90
7512;DHT22;9999;48.780;9.146;2022-08-06T01:41:10;18.70;99.90
7512;DHT22;9999;48.780;9.146;2022-08-06T01:43:40;18.60;99.90
7512;DHT22;9999;48.780;9.146;2022-08-06T01:46:08;18.60;99.90
7512;DHT22;9999;48.780;9.146;2022-08-06T01:48:37;18.50;99.90
7512;DHT22;9999;48.780;9.146;2022-08-06T01:51:05;18.40;99.90
7512;DHT22;9999;48.780;9.146;2022-08-06T01:53:36;18.30;99.90
7512;DHT22;9999;48.780;9.146;2022-08-06T01:56:04;18.20;99.90
7512;DHT22;9999;48.780;9.146;2022-08-06T01:58:36;18.30;99.90
7512;DHT22;9999;48.780;9.146;2022-08-06T02:01:08;18.30;99.90
7512;DHT22;9999;48.780;9.146;2022-08-06T02:03:42;18.30;99.90
7512;DHT22;9999;48.780;9.146;2022-08-06T02:06:12;18.30;99.90
7512;DHT22;9999;48.780;9.146;2022-08-06T02:08:41;18.20;99.90
7512;DHT22;9999;48.780;9.146;2022-08-06T02:11:10;18.30;99.90
7512;DHT22;9999;48.780;9.146;2022-08-06T02:13:39;18.20;99.90
7512;DHT22;9999;48.780;9.146;2022-08-06T02:16:09;18.20;99.90
7512;DHT22;9999;48.780;9.146;2022-08-06T02:18:39;18.20;99.90
7512;DHT22;9999;48.780;9.146;2022-08-06T02:21:08;18.10;99.90
7512;DHT22;9999;48.780;9.146;2022-08-06T02:23:37;18.10;99.90
7512;DHT22;9999;48.780;9.146;2022-08-06T02:26:04;18.00;99.90
7512;DHT22;9999;48.780;9.146;2022-08-06T02:28:33;18.00;99.90
7512;DHT22;9999;48.780;9.146;2022-08-06T02:31:00;18.00;99.90
7512;DHT22;9999;48.780;9.146;2022-08-06T02:33:29;18.00;99.90
7512;DHT22;9999;48.780;9.146;2022-08-06T02:36:02;18.00;99.90
7512;DHT22;9999;48.780;9.146;2022-08-06T02:38:35;17.90;99.90
7512;DHT22;9999;48.780;9.146;2022-08-06T02:41:11;18.00;99.90
7512;DHT22;9999;48.780;9.146;2022-08-06T02:43:42;17.90;99.90
7512;DHT22;9999;48.780;9.146;2022-08-06T02:46:16;17.90;99.90
7512;DHT22;9999;48.780;9.146;2022-08-06T02:48:50;17.80;99.90
7512;DHT22;9999;48.780;9.146;2022-08-06T02:51:20;17.90;99.90
7512;DHT22;9999;48.780;9.146;2022-08-06T02:53:56;17.90;99.90
7512;DHT22;9999;48.780;9.146;2022-08-06T02:56:25;17.90;99.90
7512;DHT22;9999;48.780;9.146;2022-08-06T02:58:54;17.90;99.90
7512;DHT22;9999;48.780;9.146;2022-08-06T03:01:25;18.00;99.90
7512;DHT22;9999;48.780;9.146;2022-08-06T03:03:57;17.90;99.90
7512;DHT22;9999;48.780;9.146;2022-08-06T03:06:26;17.90;99.90
7512;DHT22;9999;48.780;9.146;2022-08-06T03:08:55;17.90;99.90
7512;DHT22;9999;48.780;9.146;2022-08-06T03:11:23;17.90;99.90
7512;DHT22;9999;48.780;9.146;2022-08-06T03:13:51;18.00;99.90
7512;DHT22;9999;48.780;9.146;2022-08-06T03:16:19;17.90;99.90
7512;DHT22;9999;48.780;9.146;2022-08-06T03:18:46;18.00;99.90
7512;DHT22;9999;48.780;9.146;2022-08-06T03:21:16;17.90;99.90
7512;DHT22;9999;48.780;9.146;2022-08-06T03:23:43;18.00;99.90
7512;DHT22;9999;48.780;9.146;2022-08-06T03:26:11;17.90;99.90
7512;DHT22;9999;48.780;9.146;2022-08-06T03:28:40;17.90;99.90
7512;DHT22;9999;48.780;9.146;2022-08-06T03:31:07;17.80;99.90
7512;DHT22;9999;48.780;9.146;2022-08-06T03:33:35;17.80;99.90
7512;DHT22;9999;48.780;9.146;2022-08-06T03:36:03;17.80;99.90
7512;DHT22;9999;48.780;9.146;2022-08-06T03:38:38;17.90;99.90
7512;DHT22;9999;48.780;9.146;2022-08-06T03:41:05;17.80;99.90
7512;DHT22;9999;48.780;9.146;2022-08-06T03:43:33;17.80;99.90
7512;DHT22;9999;48.780;9.146;2022-08-06T03:46:02;17.80;99.90
7512;DHT22;9999;48.780;9.146;2022-08-06T03:48:33;17.70;99.90
7512;DHT22;9999;48.780;9.146;2022-08-06T03:51:02;17.70;99.90
7512;DHT22;9999;48.780;9.146;2022-08-06T03:53:33;17.80;99.90
7512;DHT22;9999;48.780;9.146;2022-08-06T03:56:04;17.70;99.90
7512;DHT22;9999;48.780;9.146;2022-08-06T03:58:32;17.80;99.90
7512;DHT22;9999;48.780;9.146;2022-08-06T04:01:02;17.70;99.90
7512;DHT22;9999;48.780;9.146;2022-08-06T04:03:31;17.80;99.90
7512;DHT22;9999;48.780;9.146;2022-08-06T04:05:58;17.80;99.90
7512;DHT22;9999;48.780;9.146;2022-08-06T04:08:26;17.80;99.90
7512;DHT22;9999;48.780;9.146;2022-08-06T04:10:55;17.70;99.90
7512;DHT22;9999;48.780;9.146;2022-08-06T04:13:23;17.80;99.90
7512;DHT22;9999;48.780;9.146;2022-08-06T04:15:51;17.70;99.90
7512;DHT22;9999;48.780;9.146;2022-08-06T04:18:21;17.70;99.90
7512;DHT22;9999;48.780;9.146;2022-08-06T04:20:54;17.70;99.90
7512;DHT22;9999;48.780;9.146;2022-08-06T04:23:22;17.70;99.90
7512;DHT22;9999;48.780;9.146;2022-08-06T04:25:52;17.70;99.90
7512;DHT22;9999;48.780;9.146;2022-08-06T04:28:24;17.70;99.90
7512;DHT22;9999;48.780;9.146;2022-08-06T04:30:52;17.80;99.90
7512;DHT22;9999;48.780;9.146;2022-08-06T04:33:21;17.80;99.90
7512;DHT22;9999;48.780;9.146;2022-08-06T04:35:49;17.80;99.90
7512;DHT22;9999;48.780;9.146;2022-08-06T04:38:17;17.80;99.90
7512;DHT22;9999;48.780;9.146;2022-08-06T04:40:44;17.80;99.90
7512;DHT22;9999;48.780;9.146;2022-08-06T04:43:12;17.70;99.90
7512;DHT22;9999;48.780;9.146;2022-08-06T04:45:41;17.70;99.90
7512;DHT22;9999;48.780;9.146;2022-08-06T04:48:10;17.80;99.90
7512;DHT22;9999;48.780;9.146;2022-08-06T04:50:38;17.80;99.90
7512;DHT22;9999;48.780;9.146;2022-08-06T04:53:06;17.80;99.90
7512;DHT22;9999;48.780;9.146;2022-08-06T04:55:33;17.70;99.90
7512;DHT22;9999;48.780;9.146;2022-08-06T04:58:01;17.70;99.90
7512;DHT22;9999;48.780;9.146;2022-08-06T05:00:28;17.70;99.90
7512;DHT22;9999;48.780;9.146;2022-08-06T05:02:56;17.70;99.90
7512;DHT22;9999;48.780;9.146;2022-08-06T05:05:23;17.70;99.90
7512;DHT22;9999;48.780;9.146;2022-08-06T05:07:53;17.80;99.90
7512;DHT22;9999;48.780;9.146;2022-08-06T05:10:21;17.70;99.90
7512;DHT22;9999;48.780;9.146;2022-08-06T05:12:53;17.80;99.90
7512;DHT22;9999;48.780;9.146;2022-08-06T05:15:26;17.80;99.90
7512;DHT22;9999;48.780;9.146;2022-08-06T05:17:58;17.80;99.90
7512;DHT22;9999;48.780;9.146;2022-08-06T05:20:28;17.80;99.90
7512;DHT22;9999;48.780;9.146;2022-08-06T05:22:59;17.80;99.90
7512;DHT22;9999;48.780;9.146;2022-08-06T05:25:27;17.80;99.90
7512;DHT22;9999;48.780;9.146;2022-08-06T05:27:54;17.80;99.90
7512;DHT22;9999;48.780;9.146;2022-08-06T05:30:21;17.80;99.90
7512;DHT22;9999;48.780;9.146;2022-08-06T05:32:49;17.70;99.90
7512;DHT22;9999;48.780;9.146;2022-08-06T05:35:17;17.70;99.90
7512;DHT22;9999;48.780;9.146;2022-08-06T05:37:44;17.70;99.90
7512;DHT22;9999;48.780;9.146;2022-08-06T05:40:10;17.70;99.90
7512;DHT22;9999;48.780;9.146;2022-08-06T05:42:37;17.70;99.90
7512;DHT22;9999;48.780;9.146;2022-08-06T05:45:06;17.70;99.90
7512;DHT22;9999;48.780;9.146;2022-08-06T05:47:36;17.80;99.90
7512;DHT22;9999;48.780;9.146;2022-08-06T05:50:08;17.70;99.90
7512;DHT22;9999;48.780;9.146;2022-08-06T05:52:40;17.70;99.90
7512;DHT22;9999;48.780;9.146;2022-08-06T05:55:14;17.70;99.90
7512;DHT22;9999;48.780;9.146;2022-08-06T05:57:47;17.70;99.90
7512;DHT22;9999;48.780;9.146;2022-08-06T06:00:18;17.70;99.90
7512;DHT22;9999;48.780;9.146;2022-08-06T06:02:47;17.70;99.90
7512;DHT22;9999;48.780;9.146;2022-08-06T06:05:15;17.70;99.90
7512;DHT22;9999;48.780;9.146;2022-08-06T06:07:43;17.80;99.90
7512;DHT22;9999;48.780;9.146;2022-08-06T06:10:10;17.80;99.90
7512;DHT22;9999;48.780;9.146;2022-08-06T06:12:39;17.80;99.90
7512;DHT22;9999;48.780;9.146;2022-08-06T06:15:08;17.80;99.90
7512;DHT22;9999;48.780;9.146;2022-08-06T06:20:43;17.80;99.90
7512;DHT22;9999;48.780;9.146;2022-08-06T06:23:17;17.90;99.90
7512;DHT22;9999;48.780;9.146;2022-08-06T06:26:01;17.90;99.90
7512;DHT22;9999;48.780;9.146;2022-08-06T06:28:33;18.00;99.90
7512;DHT22;9999;48.780;9.146;2022-08-06T06:31:07;18.10;99.90
7512;DHT22;9999;48.780;9.146;2022-08-06T06:33:42;18.20;99.90
7512;DHT22;9999;48.780;9.146;2022-08-06T06:36:16;18.30;99.90
7512;DHT22;9999;48.780;9.146;2022-08-06T06:38:54;18.40;99.90
7512;DHT22;9999;48.780;9.146;2022-08-06T06:41:30;18.50;99.90
7512;DHT22;9999;48.780;9.146;2022-08-06T06:44:11;18.60;99.90
7512;DHT22;9999;48.780;9.146;2022-08-06T06:46:45;18.70;99.90
7512;DHT22;9999;48.780;9.146;2022-08-06T06:49:18;18.70;99.90
7512;DHT22;9999;48.780;9.146;2022-08-06T06:51:52;18.70;99.90
7512;DHT22;9999;48.780;9.146;2022-08-06T06:54:28;18.70;99.90
7512;DHT22;9999;48.780;9.146;2022-08-06T06:56:57;18.80;99.90
7512;DHT22;9999;48.780;9.146;2022-08-06T06:59:31;18.70;99.90
7512;DHT22;9999;48.780;9.146;2022-08-06T07:02:00;18.90;99.90
7512;DHT22;9999;48.780;9.146;2022-08-06T07:04:28;19.00;99.90
7512;DHT22;9999;48.780;9.146;2022-08-06T07:06:57;19.20;99.90
7512;DHT22;9999;48.780;9.146;2022-08-06T07:09:28;19.40;99.90
7512;DHT22;9999;48.780;9.146;2022-08-06T07:11:58;19.50;99.90
7512;DHT22;9999;48.780;9.146;2022-08-06T07:14:26;19.40;99.90
7512;DHT22;9999;48.780;9.146;2022-08-06T07:16:55;19.60;99.90
7512;DHT22;9999;48.780;9.146;2022-08-06T07:19:25;19.70;99.90
7512;DHT22;9999;48.780;9.146;2022-08-06T07:21:53;19.80;99.90
7512;DHT22;9999;48.780;9.146;2022-08-06T07:24:23;20.00;99.90
7512;DHT22;9999;48.780;9.146;2022-08-06T07:26:52;20.00;99.90
7512;DHT22;9999;48.780;9.146;2022-08-06T07:29:20;20.10;99.90
7512;DHT22;9999;48.780;9.146;2022-08-06T07:31:47;20.00;99.90
7512;DHT22;9999;48.780;9.146;2022-08-06T07:34:16;19.90;99.90
7512;DHT22;9999;48.780;9.146;2022-08-06T07:36:47;19.80;99.90
7512;DHT22;9999;48.780;9.146;2022-08-06T07:39:17;19.60;99.90
7512;DHT22;9999;48.780;9.146;2022-08-06T07:41:47;19.50;99.90
7512;DHT22;9999;48.780;9.146;2022-08-06T07:44:15;19.50;99.90
7512;DHT22;9999;48.780;9.146;2022-08-06T07:46:44;19.60;99.90
7512;DHT22;9999;48.780;9.146;2022-08-06T07:49:17;19.70;99.90
7512;DHT22;9999;48.780;9.146;2022-08-06T07:51:47;19.90;99.90
7512;DHT22;9999;48.780;9.146;2022-08-06T07:54:18;20.00;99.90
7512;DHT22;9999;48.780;9.146;2022-08-06T07:56:45;20.20;99.90
7512;DHT22;9999;48.780;9.146;2022-08-06T07:59:12;20.40;99.90
7512;DHT22;9999;48.780;9.146;2022-08-06T08:01:41;20.50;99.90
7512;DHT22;9999;48.780;9.146;2022-08-06T08:04:08;20.70;99.90
7512;DHT22;9999;48.780;9.146;2022-08-06T08:06:54;20.70;99.90
7512;DHT22;9999;48.780;9.146;2022-08-06T08:09:23;20.90;99.90
7512;DHT22;9999;48.780;9.146;2022-08-06T08:11:51;21.00;99.90
7512;DHT22;9999;48.780;9.146;2022-08-06T08:14:20;21.20;99.90
7512;DHT22;9999;48.780;9.146;2022-08-06T08:16:49;21.20;99.90
7512;DHT22;9999;48.780;9.146;2022-08-06T08:19:24;20.90;99.90
7512;DHT22;9999;48.780;9.146;2022-08-06T08:21:53;20.90;99.90
7512;DHT22;9999;48.780;9.146;2022-08-06T08:24:22;21.10;99.90
7512;DHT22;9999;48.780;9.146;2022-08-06T08:26:49;21.10;99.90
7512;DHT22;9999;48.780;9.146;2022-08-06T08:29:16;20.60;99.90
7512;DHT22;9999;48.780;9.146;2022-08-06T08:31:43;20.40;99.90
7512;DHT22;9999;48.780;9.146;2022-08-06T08:34:11;20.40;99.90
7512;DHT22;9999;48.780;9.146;2022-08-06T08:36:38;20.40;99.90
7512;DHT22;9999;48.780;9.146;2022-08-06T08:39:06;20.40;99.90
7512;DHT22;9999;48.780;9.146;2022-08-06T08:41:36;20.50;99.90
7512;DHT22;9999;48.780;9.146;2022-08-06T08:44:14;21.00;99.90
7512;DHT22;9999;48.780;9.146;2022-08-06T08:46:43;21.50;99.90
7512;DHT22;9999;48.780;9.146;2022-08-06T08:49:19;21.70;99.90
7512;DHT22;9999;48.780;9.146;2022-08-06T08:51:47;22.10;99.90
7512;DHT22;9999;48.780;9.146;2022-08-06T08:54:18;22.10;99.90
7512;DHT22;9999;48.780;9.146;2022-08-06T08:56:48;21.90;99.90
7512;DHT22;9999;48.780;9.146;2022-08-06T08:59:15;21.40;99.90
7512;DHT22;9999;48.780;9.146;2022-08-06T09:01:43;21.20;99.90
7512;DHT22;9999;48.780;9.146;2022-08-06T09:04:10;21.00;99.90
7512;DHT22;9999;48.780;9.146;2022-08-06T09:06:39;20.90;99.90
7512;DHT22;9999;48.780;9.146;2022-08-06T09:09:06;20.80;99.90
7512;DHT22;9999;48.780;9.146;2022-08-06T09:11:34;20.80;99.90
7512;DHT22;9999;48.780;9.146;2022-08-06T09:14:02;20.60;99.90
7512;DHT22;9999;48.780;9.146;2022-08-06T09:16:29;20.40;99.90
7512;DHT22;9999;48.780;9.146;2022-08-06T09:18:57;20.30;99.90
7512;DHT22;9999;48.780;9.146;2022-08-06T09:21:24;20.30;99.90
7512;DHT22;9999;48.780;9.146;2022-08-06T09:23:52;20.40;99.90
7512;DHT22;9999;48.780;9.146;2022-08-06T09:26:19;20.50;99.90
7512;DHT22;9999;48.780;9.146;2022-08-06T09:28:46;20.30;99.90
7512;DHT22;9999;48.780;9.146;2022-08-06T09:31:14;20.40;99.90
7512;DHT22;9999;48.780;9.146;2022-08-06T09:33:53;20.40;99.90
7512;DHT22;9999;48.780;9.146;2022-08-06T09:36:20;20.70;99.90
7512;DHT22;9999;48.780;9.146;2022-08-06T09:38:48;20.70;99.90
7512;DHT22;9999;48.780;9.146;2022-08-06T09:41:19;20.90;99.90
7512;DHT22;9999;48.780;9.146;2022-08-06T09:43:48;20.90;99.90
7512;DHT22;9999;48.780;9.146;2022-08-06T09:46:16;20.80;99.90
7512;DHT22;9999;48.780;9.146;2022-08-06T09:48:57;20.90;99.90
7512;DHT22;9999;48.780;9.146;2022-08-06T09:51:25;20.80;99.90
7512;DHT22;9999;48.780;9.146;2022-08-06T09:53:52;20.80;99.90
7512;DHT22;9999;48.780;9.146;2022-08-06T09:56:21;20.70;99.90
7512;DHT22;9999;48.780;9.146;2022-08-06T09:58:48;20.90;99.90
7512;DHT22;9999;48.780;9.146;2022-08-06T10:01:17;21.10;99.90
7512;DHT22;9999;48.780;9.146;2022-08-06T10:03:44;21.00;99.90
7512;DHT22;9999;48.780;9.146;2022-08-06T10:06:14;21.10;99.90
7512;DHT22;9999;48.780;9.146;2022-08-06T10:08:43;21.10;99.90
7512;DHT22;9999;48.780;9.146;2022-08-06T10:11:10;21.10;99.90
7512;DHT22;9999;48.780;9.146;2022-08-06T10:13:38;21.00;99.90
7512;DHT22;9999;48.780;9.146;2022-08-06T10:16:17;20.90;99.90
7512;DHT22;9999;48.780;9.146;2022-08-06T10:18:46;20.80;99.90
7512;DHT22;9999;48.780;9.146;2022-08-06T10:21:14;20.90;99.90
7512;DHT22;9999;48.780;9.146;2022-08-06T10:23:44;20.90;99.90
7512;DHT22;9999;48.780;9.146;2022-08-06T10:26:12;21.10;99.90
7512;DHT22;9999;48.780;9.146;2022-08-06T10:28:43;21.10;99.90
7512;DHT22;9999;48.780;9.146;2022-08-06T10:31:12;21.40;99.90
7512;DHT22;9999;48.780;9.146;2022-08-06T10:33:41;21.60;99.90
7512;DHT22;9999;48.780;9.146;2022-08-06T10:36:12;21.60;99.90
7512;DHT22;9999;48.780;9.146;2022-08-06T10:38:44;21.60;99.90
7512;DHT22;9999;48.780;9.146;2022-08-06T10:41:12;21.60;99.90
7512;DHT22;9999;48.780;9.146;2022-08-06T10:43:41;21.70;99.90
7512;DHT22;9999;48.780;9.146;2022-08-06T10:46:09;22.10;99.90
7512;DHT22;9999;48.780;9.146;2022-08-06T10:48:38;22.20;99.90
7512;DHT22;9999;48.780;9.146;2022-08-06T10:51:06;22.30;99.90
7512;DHT22;9999;48.780;9.146;2022-08-06T10:53:34;22.40;99.90
7512;DHT22;9999;48.780;9.146;2022-08-06T10:56:02;22.50;99.90
7512;DHT22;9999;48.780;9.146;2022-08-06T10:58:30;22.90;99.90
7512;DHT22;9999;48.780;9.146;2022-08-06T11:01:00;23.00;99.90
7512;DHT22;9999;48.780;9.146;2022-08-06T11:03:38;23.10;99.90
7512;DHT22;9999;48.780;9.146;2022-08-06T11:06:22;23.00;99.90
7512;DHT22;9999;48.780;9.146;2022-08-06T11:09:02;22.80;99.90
7512;DHT22;9999;48.780;9.146;2022-08-06T11:11:43;22.60;99.90
7512;DHT22;9999;48.780;9.146;2022-08-06T11:14:13;22.70;99.90
7512;DHT22;9999;48.780;9.146;2022-08-06T11:16:53;22.80;99.90
7512;DHT22;9999;48.780;9.146;2022-08-06T11:19:37;22.80;99.90
7512;DHT22;9999;48.780;9.146;2022-08-06T11:22:04;22.70;99.90
7512;DHT22;9999;48.780;9.146;2022-08-06T11:24:31;22.70;99.90
7512;DHT22;9999;48.780;9.146;2022-08-06T11:26:58;22.50;99.90
7512;DHT22;9999;48.780;9.146;2022-08-06T11:29:25;22.50;99.90
7512;DHT22;9999;48.780;9.146;2022-08-06T11:31:53;22.80;99.90
7512;DHT22;9999;48.780;9.146;2022-08-06T11:34:40;23.30;99.90
7512;DHT22;9999;48.780;9.146;2022-08-06T11:37:08;23.40;99.90
7512;DHT22;9999;48.780;9.146;2022-08-06T11:40:04;23.30;99.90
7512;DHT22;9999;48.780;9.146;2022-08-06T11:42:41;23.30;99.90
7512;DHT22;9999;48.780;9.146;2022-08-06T11:45:08;23.50;99.90
7512;DHT22;9999;48.780;9.146;2022-08-06T11:48:05;23.90;99.90
7512;DHT22;9999;48.780;9.146;2022-08-06T11:50:33;24.00;99.90
7512;DHT22;9999;48.780;9.146;2022-08-06T11:53:00;24.00;99.90
7512;DHT22;9999;48.780;9.146;2022-08-06T11:55:26;23.70;99.90
7512;DHT22;9999;48.780;9.146;2022-08-06T11:58:17;23.40;99.90
7512;DHT22;9999;48.780;9.146;2022-08-06T12:00:56;23.10;99.90
7512;DHT22;9999;48.780;9.146;2022-08-06T12:03:37;23.00;99.90
7512;DHT22;9999;48.780;9.146;2022-08-06T12:06:19;23.40;99.90
7512;DHT22;9999;48.780;9.146;2022-08-06T12:09:08;23.50;99.90
7512;DHT22;9999;48.780;9.146;2022-08-06T12:11:35;23.60;99.90
7512;DHT22;9999;48.780;9.146;2022-08-06T12:14:04;23.70;99.90
7512;DHT22;9999;48.780;9.146;2022-08-06T12:16:37;23.70;99.10
7512;DHT22;9999;48.780;9.146;2022-08-06T12:19:12;24.00;99.90
7512;DHT22;9999;48.780;9.146;2022-08-06T12:21:41;24.50;97.30
7512;DHT22;9999;48.780;9.146;2022-08-06T12:24:10;24.60;95.80
7512;DHT22;9999;48.780;9.146;2022-08-06T12:26:37;24.90;98.80
7512;DHT22;9999;48.780;9.146;2022-08-06T12:29:05;25.00;99.20
7512;DHT22;9999;48.780;9.146;2022-08-06T12:31:37;25.00;95.90
7512;DHT22;9999;48.780;9.146;2022-08-06T12:34:06;25.00;96.30
7512;DHT22;9999;48.780;9.146;2022-08-06T12:36:35;25.30;94.20
7512;DHT22;9999;48.780;9.146;2022-08-06T12:39:05;25.20;93.30
7512;DHT22;9999;48.780;9.146;2022-08-06T12:41:35;25.10;94.90
7512;DHT22;9999;48.780;9.146;2022-08-06T12:44:02;25.10;94.80
7512;DHT22;9999;48.780;9.146;2022-08-06T12:46:29;24.80;95.80
7512;DHT22;9999;48.780;9.146;2022-08-06T12:48:56;24.60;94.80
7512;DHT22;9999;48.780;9.146;2022-08-06T12:51:24;24.50;94.70
7512;DHT22;9999;48.780;9.146;2022-08-06T12:53:52;24.40;93.70
7512;DHT22;9999;48.780;9.146;2022-08-06T12:56:22;24.40;91.90
7512;DHT22;9999;48.780;9.146;2022-08-06T12:58:50;24.60;93.00
7512;DHT22;9999;48.780;9.146;2022-08-06T13:01:20;24.80;93.20
7512;DHT22;9999;48.780;9.146;2022-08-06T13:03:50;25.20;92.60
7512;DHT22;9999;48.780;9.146;2022-08-06T13:06:19;25.50;90.70
7512;DHT22;9999;48.780;9.146;2022-08-06T13:08:50;25.60;91.10
7512;DHT22;9999;48.780;9.146;2022-08-06T13:11:17;25.50;88.00
7512;DHT22;9999;48.780;9.146;2022-08-06T13:13:47;25.50;88.90
7512;DHT22;9999;48.780;9.146;2022-08-06T13:16:14;25.70;91.70
7512;DHT22;9999;48.780;9.146;2022-08-06T13:18:42;25.90;89.00
7512;DHT22;9999;48.780;9.146;2022-08-06T13:21:21;25.60;86.60
7512;DHT22;9999;48.780;9.146;2022-08-06T13:23:51;25.30;90.40
7512;DHT22;9999;48.780;9.146;2022-08-06T13:26:19;25.30;88.60
7512;DHT22;9999;48.780;9.146;2022-08-06T13:29:11;25.20;91.20
7512;DHT22;9999;48.780;9.146;2022-08-06T13:31:41;25.40;90.10
7512;DHT22;9999;48.780;9.146;2022-08-06T13:34:10;25.50;87.80
7512;DHT22;9999;48.780;9.146;2022-08-06T13:36:38;25.80;89.30
7512;DHT22;9999;48.780;9.146;2022-08-06T13:39:25;26.20;90.00
7512;DHT22;9999;48.780;9.146;2022-08-06T13:42:06;26.10;87.20
7512;DHT22;9999;48.780;9.146;2022-08-06T13:44:35;25.70;82.70
7512;DHT22;9999;48.780;9.146;2022-08-06T13:47:03;25.50;84.10
7512;DHT22;9999;48.780;9.146;2022-08-06T13:49:31;25.30;84.00
7512;DHT22;9999;48.780;9.146;2022-08-06T13:51:58;25.20;83.90
7512;DHT22;9999;48.780;9.146;2022-08-06T13:54:26;25.30;85.90
7512;DHT22;9999;48.780;9.146;2022-08-06T13:56:55;25.40;82.30
7512;DHT22;9999;48.780;9.146;2022-08-06T13:59:24;25.40;84.00
7512;DHT22;9999;48.780;9.146;2022-08-06T14:01:51;25.70;81.20
7512;DHT22;9999;48.780;9.146;2022-08-06T14:04:19;25.90;80.50
7512;DHT22;9999;48.780;9.146;2022-08-06T14:06:48;26.20;80.30
7512;DHT22;9999;48.780;9.146;2022-08-06T14:09:18;26.10;78.20
7512;DHT22;9999;48.780;9.146;2022-08-06T14:11:46;26.00;83.40
7512;DHT22;9999;48.780;9.146;2022-08-06T14:14:15;25.50;81.50
7512;DHT22;9999;48.780;9.146;2022-08-06T14:16:42;25.20;80.00
7512;DHT22;9999;48.780;9.146;2022-08-06T14:19:09;25.00;81.40
7512;DHT22;9999;48.780;9.146;2022-08-06T14:21:36;24.90;83.00
7512;DHT22;9999;48.780;9.146;2022-08-06T14:24:03;24.90;84.40
7512;DHT22;9999;48.780;9.146;2022-08-06T14:26:30;24.90;81.40
7512;DHT22;9999;48.780;9.146;2022-08-06T14:28:58;24.90;84.60
7512;DHT22;9999;48.780;9.146;2022-08-06T14:31:26;25.20;80.30
7512;DHT22;9999;48.780;9.146;2022-08-06T14:33:53;25.30;79.10
7512;DHT22;9999;48.780;9.146;2022-08-06T14:36:20;25.40;78.10
7512;DHT22;9999;48.780;9.146;2022-08-06T14:38:47;25.60;76.60
7512;DHT22;9999;48.780;9.146;2022-08-06T14:41:13;25.80;78.00
7512;DHT22;9999;48.780;9.146;2022-08-06T14:43:59;26.00;79.60
7512;DHT22;9999;48.780;9.146;2022-08-06T14:46:44;26.00;80.50
7512;DHT22;9999;48.780;9.146;2022-08-06T14:49:11;26.10;77.90
7512;DHT22;9999;48.780;9.146;2022-08-06T14:51:38;26.20;78.60
7512;DHT22;9999;48.780;9.146;2022-08-06T14:54:05;26.30;76.90
7512;DHT22;9999;48.780;9.146;2022-08-06T14:56:31;26.30;73.40
7512;DHT22;9999;48.780;9.146;2022-08-06T14:58:59;26.30;72.90
7512;DHT22;9999;48.780;9.146;2022-08-06T15:01:26;26.40;72.40
7512;DHT22;9999;48.780;9.146;2022-08-06T15:03:53;26.40;73.00
7512;DHT22;9999;48.780;9.146;2022-08-06T15:06:20;26.30;74.40
7512;DHT22;9999;48.780;9.146;2022-08-06T15:08:46;26.40;72.50
7512;DHT22;9999;48.780;9.146;2022-08-06T15:11:13;26.50;70.70
7512;DHT22;9999;48.780;9.146;2022-08-06T15:13:40;26.40;70.70
7512;DHT22;9999;48.780;9.146;2022-08-06T15:16:08;26.60;70.00
7512;DHT22;9999;48.780;9.146;2022-08-06T15:18:35;26.50;70.40
7512;DHT22;9999;48.780;9.146;2022-08-06T15:21:02;26.40;71.60
7512;DHT22;9999;48.780;9.146;2022-08-06T15:23:30;26.60;71.80
7512;DHT22;9999;48.780;9.146;2022-08-06T15:25:57;26.40;68.80
7512;DHT22;9999;48.780;9.146;2022-08-06T15:28:24;26.30;68.00
7512;DHT22;9999;48.780;9.146;2022-08-06T15:30:52;26.20;68.50
7512;DHT22;9999;48.780;9.146;2022-08-06T15:33:20;26.20;70.10
7512;DHT22;9999;48.780;9.146;2022-08-06T15:35:46;26.10;72.70
7512;DHT22;9999;48.780;9.146;2022-08-06T15:38:13;26.20;70.40
7512;DHT22;9999;48.780;9.146;2022-08-06T15:40:40;26.10;69.10
7512;DHT22;9999;48.780;9.146;2022-08-06T15:43:07;26.10;66.70
7512;DHT22;9999;48.780;9.146;2022-08-06T15:45:34;26.20;66.90
7512;DHT22;9999;48.780;9.146;2022-08-06T15:48:00;26.10;66.60
7512;DHT22;9999;48.780;9.146;2022-08-06T15:50:29;26.30;67.40
7512;DHT22;9999;48.780;9.146;2022-08-06T15:52:55;26.30;64.10
7512;DHT22;9999;48.780;9.146;2022-08-06T15:55:22;26.30;67.30
7512;DHT22;9999;48.780;9.146;2022-08-06T15:57:49;26.20;68.30
7512;DHT22;9999;48.780;9.146;2022-08-06T16:00:16;26.20;67.50
7512;DHT22;9999;48.780;9.146;2022-08-06T16:02:44;26.20;67.40
7512;DHT22;9999;48.780;9.146;2022-08-06T16:05:11;26.10;66.30
7512;DHT22;9999;48.780;9.146;2022-08-06T16:07:39;26.10;68.20
7512;DHT22;9999;48.780;9.146;2022-08-06T16:10:06;26.20;67.00
7512;DHT22;9999;48.780;9.146;2022-08-06T16:12:33;26.20;65.90
7512;DHT22;9999;48.780;9.146;2022-08-06T16:15:00;26.30;66.70
7512;DHT22;9999;48.780;9.146;2022-08-06T16:17:27;26.20;65.90
7512;DHT22;9999;48.780;9.146;2022-08-06T16:19:54;26.20;66.00
7512;DHT22;9999;48.780;9.146;2022-08-06T16:22:21;26.20;64.50
7512;DHT22;9999;48.780;9.146;2022-08-06T16:24:49;26.20;61.90